sensor_id;sensor_type;location;lat;lon;timestamp;temperature;humidity
62575;DHT22;53112;45.602;11.904;2022-09-20T00:01:11;18.60;49.70
62575;DHT22;53112;45.602;11.904;2022-09-20T00:03:40;18.70;48.90
62575;DHT22;53112;45.602;11.904;2022-09-20T00:06:08;18.70;48.70
62575;DHT22;53112;45.602;11.904;2022-09-20T00:08:35;18.70;49.20
62575;DHT22;53112;45.602;11.904;2022-09-20T00:11:06;18.80;48.30
62575;DHT22;53112;45.602;11.904;2022-09-20T00:13:33;18.70;48.90
62575;DHT22;53112;45.602;11.904;2022-09-20T00:16:04;18.70;49.70
62575;DHT22;53112;45.602;11.904;2022-09-20T00:18:30;18.50;50.00
62575;DHT22;53112;45.602;11.904;2022-09-20T00:20:56;18.60;49.50
62575;DHT22;53112;45.602;11.904;2022-09-20T00:23:22;18.50;49.60
62575;DHT22;53112;45.602;11.904;2022-09-20T00:25:54;18.40;49.50
62575;DHT22;53112;45.602;11.904;2022-09-20T00:28:21;18.40;49.40
62575;DHT22;53112;45.602;11.904;2022-09-20T00:30:47;18.40;49.50
62575;DHT22;53112;45.602;11.904;2022-09-20T00:33:14;18.30;49.30
62575;DHT22;53112;45.602;11.904;2022-09-20T00:35:43;18.10;49.10
62575;DHT22;53112;45.602;11.904;2022-09-20T00:38:09;18.20;48.90
62575;DHT22;53112;45.602;11.904;2022-09-20T00:40:36;18.10;49.50
62575;DHT22;53112;45.602;11.904;2022-09-20T00:43:02;18.10;49.10
62575;DHT22;53112;45.602;11.904;2022-09-20T00:45:30;18.10;48.90
62575;DHT22;53112;45.602;11.904;2022-09-20T00:50:26;18.10;48.30
62575;DHT22;53112;45.602;11.904;2022-09-20T00:52:55;18.10;48.50
62575;DHT22;53112;45.602;11.904;2022-09-20T00:55:23;18.00;48.80
62575;DHT22;53112;45.602;11.904;2022-09-20T00:57:50;18.10;48.40
62575;DHT22;53112;45.602;11.904;2022-09-20T01:00:16;18.10;48.20
62575;DHT22;53112;45.602;11.904;2022-09-20T01:02:46;18.10;48.10
62575;DHT22;53112;45.602;11.904;2022-09-20T01:05:13;18.00;48.20
62575;DHT22;53112;45.602;11.904;2022-09-20T01:07:42;17.90;48.60
62575;DHT22;53112;45.602;11.904;2022-09-20T01:10:09;17.80;48.90
62575;DHT22;53112;45.602;11.904;2022-09-20T01:12:36;17.80;48.50
62575;DHT22;53112;45.602;11.904;2022-09-20T01:15:07;17.80;48.60
62575;DHT22;53112;45.602;11.904;2022-09-20T01:17:36;17.80;48.20
62575;DHT22;53112;45.602;11.904;2022-09-20T01:20:24;17.80;48.20
62575;DHT22;53112;45.602;11.904;2022-09-20T01:23:20;17.70;48.30
62575;DHT22;53112;45.602;11.904;2022-09-20T01:25:57;17.70;48.20
62575;DHT22;53112;45.602;11.904;2022-09-20T01:28:29;17.60;48.30
62575;DHT22;53112;45.602;11.904;2022-09-20T01:31:24;17.60;49.20
62575;DHT22;53112;45.602;11.904;2022-09-20T01:33:52;17.50;49.00
62575;DHT22;53112;45.602;11.904;2022-09-20T01:36:25;17.40;48.90
62575;DHT22;53112;45.602;11.904;2022-09-20T01:39:07;17.30;48.70
62575;DHT22;53112;45.602;11.904;2022-09-20T01:41:41;17.30;49.50
62575;DHT22;53112;45.602;11.904;2022-09-20T01:44:14;17.20;49.90
62575;DHT22;53112;45.602;11.904;2022-09-20T01:46:45;17.10;49.80
62575;DHT22;53112;45.602;11.904;2022-09-20T01:55:22;17.00;49.30
62575;DHT22;53112;45.602;11.904;2022-09-20T02:21:23;16.80;49.30
62575;DHT22;53112;45.602;11.904;2022-09-20T02:24:49;16.80;49.00
62575;DHT22;53112;45.602;11.904;2022-09-20T02:27:23;16.80;48.90
62575;DHT22;53112;45.602;11.904;2022-09-20T02:30:08;16.90;49.40
62575;DHT22;53112;45.602;11.904;2022-09-20T02:38:43;16.70;48.90
62575;DHT22;53112;45.602;11.904;2022-09-20T02:46:47;16.60;49.60
62575;DHT22;53112;45.602;11.904;2022-09-20T02:49:44;16.50;49.60
62575;DHT22;53112;45.602;11.904;2022-09-20T03:01:10;16.40;48.50
62575;DHT22;53112;45.602;11.904;2022-09-20T03:03:45;16.40;48.40
62575;DHT22;53112;45.602;11.904;2022-09-20T03:06:48;16.40;48.50
62575;DHT22;53112;45.602;11.904;2022-09-20T03:09:37;16.40;48.60
62575;DHT22;53112;45.602;11.904;2022-09-20T03:14:56;16.30;48.50
62575;DHT22;53112;45.602;11.904;2022-09-20T03:17:31;16.20;48.30
62575;DHT22;53112;45.602;11.904;2022-09-20T03:20:26;16.20;48.70
62575;DHT22;53112;45.602;11.904;2022-09-20T03:54:55;16.20;50.10
62575;DHT22;53112;45.602;11.904;2022-09-20T04:06:15;15.90;51.60
62575;DHT22;53112;45.602;11.904;2022-09-20T04:11:46;15.60;52.30
62575;DHT22;53112;45.602;11.904;2022-09-20T04:14:25;15.60;52.60
62575;DHT22;53112;45.602;11.904;2022-09-20T04:20:04;15.40;52.30
62575;DHT22;53112;45.602;11.904;2022-09-20T04:22:31;15.30;53.60
62575;DHT22;53112;45.602;11.904;2022-09-20T04:25:05;15.20;52.70
62575;DHT22;53112;45.602;11.904;2022-09-20T04:27:48;15.20;53.10
62575;DHT22;53112;45.602;11.904;2022-09-20T04:33:00;15.20;53.30
62575;DHT22;53112;45.602;11.904;2022-09-20T04:38:31;15.00;53.60
62575;DHT22;53112;45.602;11.904;2022-09-20T04:47:14;14.50;56.50
62575;DHT22;53112;45.602;11.904;2022-09-20T05:00:20;14.60;56.00
62575;DHT22;53112;45.602;11.904;2022-09-20T05:11:25;14.70;56.30
62575;DHT22;53112;45.602;11.904;2022-09-20T05:17:05;15.10;55.70
62575;DHT22;53112;45.602;11.904;2022-09-20T05:22:31;15.40;54.50
62575;DHT22;53112;45.602;11.904;2022-09-20T05:28:07;15.50;52.70
62575;DHT22;53112;45.602;11.904;2022-09-20T05:30:57;15.70;53.00
62575;DHT22;53112;45.602;11.904;2022-09-20T05:41:26;16.50;50.90
62575;DHT22;53112;45.602;11.904;2022-09-20T05:49:56;17.20;49.30
62575;DHT22;53112;45.602;11.904;2022-09-20T06:00:53;18.00;48.50
62575;DHT22;53112;45.602;11.904;2022-09-20T06:19:41;19.40;45.60
62575;DHT22;53112;45.602;11.904;2022-09-20T06:22:30;19.60;45.10
62575;DHT22;53112;45.602;11.904;2022-09-20T06:30:32;20.30;42.60
62575;DHT22;53112;45.602;11.904;2022-09-20T06:35:54;20.60;42.50
62575;DHT22;53112;45.602;11.904;2022-09-20T06:39:00;20.90;42.00
62575;DHT22;53112;45.602;11.904;2022-09-20T06:41:46;21.20;41.50
62575;DHT22;53112;45.602;11.904;2022-09-20T06:44:12;21.60;41.30
62575;DHT22;53112;45.602;11.904;2022-09-20T06:46:38;21.70;40.80
62575;DHT22;53112;45.602;11.904;2022-09-20T06:49:06;21.80;40.20
62575;DHT22;53112;45.602;11.904;2022-09-20T06:51:36;22.20;40.20
62575;DHT22;53112;45.602;11.904;2022-09-20T06:54:03;22.10;39.20
62575;DHT22;53112;45.602;11.904;2022-09-20T06:56:32;22.00;39.30
62575;DHT22;53112;45.602;11.904;2022-09-20T06:59:05;22.40;38.30
62575;DHT22;53112;45.602;11.904;2022-09-20T07:01:36;22.70;38.20
62575;DHT22;53112;45.602;11.904;2022-09-20T07:04:03;22.90;38.90
62575;DHT22;53112;45.602;11.904;2022-09-20T07:06:32;23.10;38.00
62575;DHT22;53112;45.602;11.904;2022-09-20T07:08:58;23.20;37.80
62575;DHT22;53112;45.602;11.904;2022-09-20T07:11:24;23.30;37.70
62575;DHT22;53112;45.602;11.904;2022-09-20T07:13:52;23.50;37.70
62575;DHT22;53112;45.602;11.904;2022-09-20T07:16:19;23.90;37.20
62575;DHT22;53112;45.602;11.904;2022-09-20T07:18:46;23.80;35.60
62575;DHT22;53112;45.602;11.904;2022-09-20T07:21:14;23.80;35.50
62575;DHT22;53112;45.602;11.904;2022-09-20T07:23:40;23.90;33.90
62575;DHT22;53112;45.602;11.904;2022-09-20T07:26:15;24.20;34.40
62575;DHT22;53112;45.602;11.904;2022-09-20T07:28:42;24.00;33.90
62575;DHT22;53112;45.602;11.904;2022-09-20T07:31:08;24.40;33.80
62575;DHT22;53112;45.602;11.904;2022-09-20T07:33:33;24.90;33.70
62575;DHT22;53112;45.602;11.904;2022-09-20T07:35:59;25.30;34.00
62575;DHT22;53112;45.602;11.904;2022-09-20T07:38:26;25.60;32.50
62575;DHT22;53112;45.602;11.904;2022-09-20T07:40:57;25.80;32.90
62575;DHT22;53112;45.602;11.904;2022-09-20T07:43:24;25.70;30.90
62575;DHT22;53112;45.602;11.904;2022-09-20T07:45:54;25.90;31.90
62575;DHT22;53112;45.602;11.904;2022-09-20T07:48:31;26.40;30.40
62575;DHT22;53112;45.602;11.904;2022-09-20T07:51:02;26.00;30.30
62575;DHT22;53112;45.602;11.904;2022-09-20T07:53:28;26.20;30.20
62575;DHT22;53112;45.602;11.904;2022-09-20T07:56:04;26.50;30.20
62575;DHT22;53112;45.602;11.904;2022-09-20T07:58:33;26.70;29.20
62575;DHT22;53112;45.602;11.904;2022-09-20T08:01:03;27.20;29.10
62575;DHT22;53112;45.602;11.904;2022-09-20T08:03:30;26.70;29.70
62575;DHT22;53112;45.602;11.904;2022-09-20T08:06:02;26.70;29.90
62575;DHT22;53112;45.602;11.904;2022-09-20T08:08:32;26.50;30.30
62575;DHT22;53112;45.602;11.904;2022-09-20T08:11:04;26.40;29.80
62575;DHT22;53112;45.602;11.904;2022-09-20T08:13:38;26.20;30.40
62575;DHT22;53112;45.602;11.904;2022-09-20T08:16:07;26.40;30.40
62575;DHT22;53112;45.602;11.904;2022-09-20T08:18:34;26.90;29.80
62575;DHT22;53112;45.602;11.904;2022-09-20T08:21:08;27.60;28.70
62575;DHT22;53112;45.602;11.904;2022-09-20T08:23:37;28.00;28.00
62575;DHT22;53112;45.602;11.904;2022-09-20T08:26:05;28.30;27.70
62575;DHT22;53112;45.602;11.904;2022-09-20T08:28:32;28.60;26.40
62575;DHT22;53112;45.602;11.904;2022-09-20T08:31:03;29.00;27.10
62575;DHT22;53112;45.602;11.904;2022-09-20T08:33:30;29.00;26.50
62575;DHT22;53112;45.602;11.904;2022-09-20T08:36:07;29.20;26.60
62575;DHT22;53112;45.602;11.904;2022-09-20T08:38:35;29.50;26.50
62575;DHT22;53112;45.602;11.904;2022-09-20T08:44:17;30.10;25.40
62575;DHT22;53112;45.602;11.904;2022-09-20T08:46:59;30.70;25.20
62575;DHT22;53112;45.602;11.904;2022-09-20T08:49:28;30.50;25.90
62575;DHT22;53112;45.602;11.904;2022-09-20T08:51:56;30.90;25.40
62575;DHT22;53112;45.602;11.904;2022-09-20T08:54:24;31.40;24.90
62575;DHT22;53112;45.602;11.904;2022-09-20T08:56:51;31.30;25.50
62575;DHT22;53112;45.602;11.904;2022-09-20T08:59:19;30.90;25.60
62575;DHT22;53112;45.602;11.904;2022-09-20T09:01:46;31.20;25.10
62575;DHT22;53112;45.602;11.904;2022-09-20T09:04:19;31.40;24.00
62575;DHT22;53112;45.602;11.904;2022-09-20T09:06:47;31.50;24.80
62575;DHT22;53112;45.602;11.904;2022-09-20T09:09:36;31.30;25.00
62575;DHT22;53112;45.602;11.904;2022-09-20T09:12:04;31.50;25.40
62575;DHT22;53112;45.602;11.904;2022-09-20T09:14:32;32.00;25.10
62575;DHT22;53112;45.602;11.904;2022-09-20T09:17:25;32.00;25.00
62575;DHT22;53112;45.602;11.904;2022-09-20T09:20:21;31.70;24.70
62575;DHT22;53112;45.602;11.904;2022-09-20T09:23:06;32.70;25.50
62575;DHT22;53112;45.602;11.904;2022-09-20T09:25:39;32.80;24.40
62575;DHT22;53112;45.602;11.904;2022-09-20T09:35:54;33.30;24.80
62575;DHT22;53112;45.602;11.904;2022-09-20T09:38:23;34.30;23.80
62575;DHT22;53112;45.602;11.904;2022-09-20T09:40:58;35.00;22.80
62575;DHT22;53112;45.602;11.904;2022-09-20T09:43:27;35.30;22.20
62575;DHT22;53112;45.602;11.904;2022-09-20T09:46:14;34.60;23.10
62575;DHT22;53112;45.602;11.904;2022-09-20T09:48:43;35.10;22.90
62575;DHT22;53112;45.602;11.904;2022-09-20T09:51:17;35.80;21.80
62575;DHT22;53112;45.602;11.904;2022-09-20T09:53:45;35.70;21.60
62575;DHT22;53112;45.602;11.904;2022-09-20T09:56:18;36.10;21.70
62575;DHT22;53112;45.602;11.904;2022-09-20T10:23:27;38.10;20.00
62575;DHT22;53112;45.602;11.904;2022-09-20T10:36:49;38.80;17.90
62575;DHT22;53112;45.602;11.904;2022-09-20T10:39:42;39.60;18.20
62575;DHT22;53112;45.602;11.904;2022-09-20T10:42:22;39.40;19.10
62575;DHT22;53112;45.602;11.904;2022-09-20T10:45:24;39.80;17.80
62575;DHT22;53112;45.602;11.904;2022-09-20T10:48:04;40.40;18.20
62575;DHT22;53112;45.602;11.904;2022-09-20T10:50:40;40.00;18.80
62575;DHT22;53112;45.602;11.904;2022-09-20T11:07:03;41.10;17.40
62575;DHT22;53112;45.602;11.904;2022-09-20T11:09:42;38.90;17.70
62575;DHT22;53112;45.602;11.904;2022-09-20T11:12:20;39.50;18.00
62575;DHT22;53112;45.602;11.904;2022-09-20T11:15:04;40.10;18.10
62575;DHT22;53112;45.602;11.904;2022-09-20T11:17:55;40.70;17.10
62575;DHT22;53112;45.602;11.904;2022-09-20T11:20:28;39.30;18.20
62575;DHT22;53112;45.602;11.904;2022-09-20T11:23:05;39.60;17.60
62575;DHT22;53112;45.602;11.904;2022-09-20T11:26:29;40.20;17.60
62575;DHT22;53112;45.602;11.904;2022-09-20T11:28:42;39.20;18.10
62575;DHT22;53112;45.602;11.904;2022-09-20T11:36:44;40.20;17.60
62575;DHT22;53112;45.602;11.904;2022-09-20T11:42:18;40.40;18.20
62575;DHT22;53112;45.602;11.904;2022-09-20T11:44:45;41.30;17.30
62575;DHT22;53112;45.602;11.904;2022-09-20T11:50:29;42.30;15.60
62575;DHT22;53112;45.602;11.904;2022-09-20T11:56:19;38.00;18.20
62575;DHT22;53112;45.602;11.904;2022-09-20T11:58:49;38.40;16.90
62575;DHT22;53112;45.602;11.904;2022-09-20T12:03:56;36.80;19.60
62575;DHT22;53112;45.602;11.904;2022-09-20T12:06:28;39.00;18.60
62575;DHT22;53112;45.602;11.904;2022-09-20T12:08:56;39.70;18.70
62575;DHT22;53112;45.602;11.904;2022-09-20T12:11:35;38.20;17.80
62575;DHT22;53112;45.602;11.904;2022-09-20T12:14:05;36.90;20.00
62575;DHT22;53112;45.602;11.904;2022-09-20T12:16:40;35.40;21.20
62575;DHT22;53112;45.602;11.904;2022-09-20T12:24:36;36.70;18.90
62575;DHT22;53112;45.602;11.904;2022-09-20T12:43:38;40.60;16.80
62575;DHT22;53112;45.602;11.904;2022-09-20T12:46:24;41.30;16.60
62575;DHT22;53112;45.602;11.904;2022-09-20T12:48:50;41.10;16.40
62575;DHT22;53112;45.602;11.904;2022-09-20T12:51:23;42.00;16.40
62575;DHT22;53112;45.602;11.904;2022-09-20T12:54:10;42.20;15.80
62575;DHT22;53112;45.602;11.904;2022-09-20T12:56:39;42.60;16.30
62575;DHT22;53112;45.602;11.904;2022-09-20T12:59:21;41.80;14.60
62575;DHT22;53112;45.602;11.904;2022-09-20T13:01:48;38.60;18.00
62575;DHT22;53112;45.602;11.904;2022-09-20T13:04:51;38.80;19.20
62575;DHT22;53112;45.602;11.904;2022-09-20T13:10:17;41.40;16.10
62575;DHT22;53112;45.602;11.904;2022-09-20T13:12:45;41.40;16.50
62575;DHT22;53112;45.602;11.904;2022-09-20T13:15:17;41.50;15.50
62575;DHT22;53112;45.602;11.904;2022-09-20T13:17:45;40.50;16.50
62575;DHT22;53112;45.602;11.904;2022-09-20T13:20:24;40.30;17.50
62575;DHT22;53112;45.602;11.904;2022-09-20T13:22:53;41.00;17.50
62575;DHT22;53112;45.602;11.904;2022-09-20T13:25:20;41.20;17.30
62575;DHT22;53112;45.602;11.904;2022-09-20T13:27:55;41.50;16.30
62575;DHT22;53112;45.602;11.904;2022-09-20T13:30:26;41.80;16.50
62575;DHT22;53112;45.602;11.904;2022-09-20T13:32:52;42.90;15.80
62575;DHT22;53112;45.602;11.904;2022-09-20T13:35:23;40.70;16.90
62575;DHT22;53112;45.602;11.904;2022-09-20T13:37:53;39.10;17.90
62575;DHT22;53112;45.602;11.904;2022-09-20T13:42:51;37.20;20.20
62575;DHT22;53112;45.602;11.904;2022-09-20T13:45:20;36.40;21.20
62575;DHT22;53112;45.602;11.904;2022-09-20T13:47:49;37.00;20.30
62575;DHT22;53112;45.602;11.904;2022-09-20T13:52:54;37.00;20.00
62575;DHT22;53112;45.602;11.904;2022-09-20T13:55:35;36.30;21.10
62575;DHT22;53112;45.602;11.904;2022-09-20T14:00:47;34.60;22.70
62575;DHT22;53112;45.602;11.904;2022-09-20T14:03:18;34.40;23.20
62575;DHT22;53112;45.602;11.904;2022-09-20T14:05:47;33.90;23.70
62575;DHT22;53112;45.602;11.904;2022-09-20T14:08:34;33.80;23.80
62575;DHT22;53112;45.602;11.904;2022-09-20T14:11:21;33.60;24.00
62575;DHT22;53112;45.602;11.904;2022-09-20T14:13:52;33.60;24.90
62575;DHT22;53112;45.602;11.904;2022-09-20T14:16:21;33.10;24.90
62575;DHT22;53112;45.602;11.904;2022-09-20T14:18:49;33.70;24.60
62575;DHT22;53112;45.602;11.904;2022-09-20T14:21:24;34.40;25.10
62575;DHT22;53112;45.602;11.904;2022-09-20T14:23:58;34.40;25.30
62575;DHT22;53112;45.602;11.904;2022-09-20T14:26:35;34.50;22.90
62575;DHT22;53112;45.602;11.904;2022-09-20T14:29:53;34.30;24.00
62575;DHT22;53112;45.602;11.904;2022-09-20T14:39:52;32.70;24.90
62575;DHT22;53112;45.602;11.904;2022-09-20T14:42:29;33.20;26.10
62575;DHT22;53112;45.602;11.904;2022-09-20T14:44:56;34.10;24.70
62575;DHT22;53112;45.602;11.904;2022-09-20T14:47:30;33.80;24.40
62575;DHT22;53112;45.602;11.904;2022-09-20T14:50:01;32.20;26.00
62575;DHT22;53112;45.602;11.904;2022-09-20T14:52:34;32.60;25.90
62575;DHT22;53112;45.602;11.904;2022-09-20T14:57:39;32.40;26.30
62575;DHT22;53112;45.602;11.904;2022-09-20T15:00:13;31.70;27.20
62575;DHT22;53112;45.602;11.904;2022-09-20T15:02:43;31.20;28.50
62575;DHT22;53112;45.602;11.904;2022-09-20T15:05:26;30.70;28.90
62575;DHT22;53112;45.602;11.904;2022-09-20T15:07:53;30.40;29.90
62575;DHT22;53112;45.602;11.904;2022-09-20T15:10:20;30.60;29.50
62575;DHT22;53112;45.602;11.904;2022-09-20T15:12:47;30.90;28.60
62575;DHT22;53112;45.602;11.904;2022-09-20T15:15:15;31.30;28.40
62575;DHT22;53112;45.602;11.904;2022-09-20T15:17:43;30.90;28.90
62575;DHT22;53112;45.602;11.904;2022-09-20T15:20:15;30.50;29.80
62575;DHT22;53112;45.602;11.904;2022-09-20T15:22:41;30.30;30.20
62575;DHT22;53112;45.602;11.904;2022-09-20T15:25:12;30.00;30.90
62575;DHT22;53112;45.602;11.904;2022-09-20T15:27:39;29.80;31.50
62575;DHT22;53112;45.602;11.904;2022-09-20T15:30:08;30.00;31.20
62575;DHT22;53112;45.602;11.904;2022-09-20T15:32:34;30.70;30.70
62575;DHT22;53112;45.602;11.904;2022-09-20T15:35:00;31.90;28.80
62575;DHT22;53112;45.602;11.904;2022-09-20T15:37:26;33.30;26.70
62575;DHT22;53112;45.602;11.904;2022-09-20T15:39:52;34.70;24.90
62575;DHT22;53112;45.602;11.904;2022-09-20T15:42:18;35.20;24.70
62575;DHT22;53112;45.602;11.904;2022-09-20T15:44:48;36.50;23.30
62575;DHT22;53112;45.602;11.904;2022-09-20T15:47:17;36.80;23.00
62575;DHT22;53112;45.602;11.904;2022-09-20T15:49:43;37.80;21.70
62575;DHT22;53112;45.602;11.904;2022-09-20T15:52:14;38.30;21.10
62575;DHT22;53112;45.602;11.904;2022-09-20T15:54:40;38.30;20.80
62575;DHT22;53112;45.602;11.904;2022-09-20T15:57:06;37.00;22.30
62575;DHT22;53112;45.602;11.904;2022-09-20T15:59:32;37.00;22.40
62575;DHT22;53112;45.602;11.904;2022-09-20T16:01:59;37.20;22.20
62575;DHT22;53112;45.602;11.904;2022-09-20T16:04:25;37.10;22.20
62575;DHT22;53112;45.602;11.904;2022-09-20T16:06:52;36.90;22.50
62575;DHT22;53112;45.602;11.904;2022-09-20T16:09:19;37.00;22.10
62575;DHT22;53112;45.602;11.904;2022-09-20T16:11:46;36.80;22.50
62575;DHT22;53112;45.602;11.904;2022-09-20T16:14:13;36.70;22.70
62575;DHT22;53112;45.602;11.904;2022-09-20T16:16:39;37.60;22.20
62575;DHT22;53112;45.602;11.904;2022-09-20T16:19:05;37.60;21.90
62575;DHT22;53112;45.602;11.904;2022-09-20T16:21:49;37.60;21.70
62575;DHT22;53112;45.602;11.904;2022-09-20T16:24:21;37.30;22.00
62575;DHT22;53112;45.602;11.904;2022-09-20T16:26:47;37.10;22.40
62575;DHT22;53112;45.602;11.904;2022-09-20T16:29:13;36.40;23.10
62575;DHT22;53112;45.602;11.904;2022-09-20T16:31:46;35.60;23.80
62575;DHT22;53112;45.602;11.904;2022-09-20T16:34:19;34.70;24.60
62575;DHT22;53112;45.602;11.904;2022-09-20T16:36:53;34.20;25.50
62575;DHT22;53112;45.602;11.904;2022-09-20T16:39:21;33.30;26.40
62575;DHT22;53112;45.602;11.904;2022-09-20T16:41:57;31.30;29.00
62575;DHT22;53112;45.602;11.904;2022-09-20T16:44:25;29.90;31.40
62575;DHT22;53112;45.602;11.904;2022-09-20T16:46:51;28.60;33.30
62575;DHT22;53112;45.602;11.904;2022-09-20T16:49:17;27.80;34.60
62575;DHT22;53112;45.602;11.904;2022-09-20T16:51:44;27.30;35.60
62575;DHT22;53112;45.602;11.904;2022-09-20T16:54:13;27.00;36.00
62575;DHT22;53112;45.602;11.904;2022-09-20T16:56:42;26.70;36.60
62575;DHT22;53112;45.602;11.904;2022-09-20T16:59:10;26.40;37.20
62575;DHT22;53112;45.602;11.904;2022-09-20T17:01:38;26.20;37.80
62575;DHT22;53112;45.602;11.904;2022-09-20T17:04:04;25.80;39.40
62575;DHT22;53112;45.602;11.904;2022-09-20T17:06:32;25.50;39.50
62575;DHT22;53112;45.602;11.904;2022-09-20T17:08:59;25.30;40.30
62575;DHT22;53112;45.602;11.904;2022-09-20T17:11:28;25.10;40.60
62575;DHT22;53112;45.602;11.904;2022-09-20T17:13:55;25.00;40.40
62575;DHT22;53112;45.602;11.904;2022-09-20T17:16:27;24.90;40.50
62575;DHT22;53112;45.602;11.904;2022-09-20T17:18:59;24.80;40.90
62575;DHT22;53112;45.602;11.904;2022-09-20T17:21:27;24.60;41.80
62575;DHT22;53112;45.602;11.904;2022-09-20T17:23:56;24.40;42.00
62575;DHT22;53112;45.602;11.904;2022-09-20T17:26:28;24.20;42.10
62575;DHT22;53112;45.602;11.904;2022-09-20T17:28:59;24.10;42.20
62575;DHT22;53112;45.602;11.904;2022-09-20T17:31:37;24.00;42.10
62575;DHT22;53112;45.602;11.904;2022-09-20T17:34:06;23.90;42.80
62575;DHT22;53112;45.602;11.904;2022-09-20T17:36:43;23.70;42.60
62575;DHT22;53112;45.602;11.904;2022-09-20T17:39:11;23.60;42.90
62575;DHT22;53112;45.602;11.904;2022-09-20T17:41:43;23.50;42.90
62575;DHT22;53112;45.602;11.904;2022-09-20T17:44:09;23.40;43.30
62575;DHT22;53112;45.602;11.904;2022-09-20T17:46:38;23.30;43.50
62575;DHT22;53112;45.602;11.904;2022-09-20T17:49:07;23.10;43.90
62575;DHT22;53112;45.602;11.904;2022-09-20T17:51:42;23.10;43.90
62575;DHT22;53112;45.602;11.904;2022-09-20T17:54:09;22.90;44.20
62575;DHT22;53112;45.602;11.904;2022-09-20T17:56:39;22.90;44.30
62575;DHT22;53112;45.602;11.904;2022-09-20T17:59:08;22.70;44.60
62575;DHT22;53112;45.602;11.904;2022-09-20T18:01:35;22.60;44.90
62575;DHT22;53112;45.602;11.904;2022-09-20T18:04:03;22.50;44.90
62575;DHT22;53112;45.602;11.904;2022-09-20T18:06:32;22.40;45.40
62575;DHT22;53112;45.602;11.904;2022-09-20T18:09:02;22.20;45.80
62575;DHT22;53112;45.602;11.904;2022-09-20T18:11:33;22.10;45.70
62575;DHT22;53112;45.602;11.904;2022-09-20T18:14:01;22.10;45.60
62575;DHT22;53112;45.602;11.904;2022-09-20T18:16:27;22.10;45.50
62575;DHT22;53112;45.602;11.904;2022-09-20T18:18:53;21.90;46.30
62575;DHT22;53112;45.602;11.904;2022-09-20T18:21:24;21.80;46.10
62575;DHT22;53112;45.602;11.904;2022-09-20T18:23:51;21.70;46.30
62575;DHT22;53112;45.602;11.904;2022-09-20T18:26:19;21.60;46.80
62575;DHT22;53112;45.602;11.904;2022-09-20T18:31:33;21.50;47.00
62575;DHT22;53112;45.602;11.904;2022-09-20T18:34:14;21.40;46.90
62575;DHT22;53112;45.602;11.904;2022-09-20T18:36:44;21.30;48.60
62575;DHT22;53112;45.602;11.904;2022-09-20T18:39:11;21.20;47.70
62575;DHT22;53112;45.602;11.904;2022-09-20T18:41:38;21.10;48.00
62575;DHT22;53112;45.602;11.904;2022-09-20T18:44:06;21.10;47.80
62575;DHT22;53112;45.602;11.904;2022-09-20T18:46:33;21.10;48.20
62575;DHT22;53112;45.602;11.904;2022-09-20T18:49:08;21.10;48.40
62575;DHT22;53112;45.602;11.904;2022-09-20T18:51:35;21.00;48.10
62575;DHT22;53112;45.602;11.904;2022-09-20T18:54:02;20.90;48.30
62575;DHT22;53112;45.602;11.904;2022-09-20T18:56:33;20.90;48.30
62575;DHT22;53112;45.602;11.904;2022-09-20T18:59:05;20.90;48.90
62575;DHT22;53112;45.602;11.904;2022-09-20T19:10:05;20.70;50.80
62575;DHT22;53112;45.602;11.904;2022-09-20T19:12:44;20.70;51.50
62575;DHT22;53112;45.602;11.904;2022-09-20T19:20:32;20.50;52.20
62575;DHT22;53112;45.602;11.904;2022-09-20T19:25:46;20.70;52.50
62575;DHT22;53112;45.602;11.904;2022-09-20T19:28:14;20.80;51.10
62575;DHT22;53112;45.602;11.904;2022-09-20T19:30:40;20.90;51.10
62575;DHT22;53112;45.602;11.904;2022-09-20T19:33:14;20.80;51.70
62575;DHT22;53112;45.602;11.904;2022-09-20T19:35:45;20.90;51.50
62575;DHT22;53112;45.602;11.904;2022-09-20T19:40:52;21.00;51.20
62575;DHT22;53112;45.602;11.904;2022-09-20T19:49:02;20.80;53.50
62575;DHT22;53112;45.602;11.904;2022-09-20T19:51:36;20.70;53.20
62575;DHT22;53112;45.602;11.904;2022-09-20T19:54:03;20.70;54.40
62575;DHT22;53112;45.602;11.904;2022-09-20T19:56:40;20.70;53.70
62575;DHT22;53112;45.602;11.904;2022-09-20T19:59:11;20.70;54.40
62575;DHT22;53112;45.602;11.904;2022-09-20T20:01:37;20.80;54.60
62575;DHT22;53112;45.602;11.904;2022-09-20T20:04:03;21.00;53.20
62575;DHT22;53112;45.602;11.904;2022-09-20T20:09:17;21.10;53.40
62575;DHT22;53112;45.602;11.904;2022-09-20T20:20:25;21.00;54.30
62575;DHT22;53112;45.602;11.904;2022-09-20T20:26:07;21.00;53.70
62575;DHT22;53112;45.602;11.904;2022-09-20T20:28:34;21.00;54.30
62575;DHT22;53112;45.602;11.904;2022-09-20T20:31:01;21.10;53.30
62575;DHT22;53112;45.602;11.904;2022-09-20T20:33:28;21.10;52.60
62575;DHT22;53112;45.602;11.904;2022-09-20T20:35:57;21.10;52.90
62575;DHT22;53112;45.602;11.904;2022-09-20T20:38:25;21.00;52.80
62575;DHT22;53112;45.602;11.904;2022-09-20T20:41:02;21.10;52.80
62575;DHT22;53112;45.602;11.904;2022-09-20T20:43:32;21.00;52.80
62575;DHT22;53112;45.602;11.904;2022-09-20T20:45:59;20.90;53.10
62575;DHT22;53112;45.602;11.904;2022-09-20T20:48:26;20.80;54.30
62575;DHT22;53112;45.602;11.904;2022-09-20T20:50:59;20.50;55.60
62575;DHT22;53112;45.602;11.904;2022-09-20T20:53:29;20.20;57.20
62575;DHT22;53112;45.602;11.904;2022-09-20T20:56:13;20.40;55.70
62575;DHT22;53112;45.602;11.904;2022-09-20T20:58:41;20.40;55.80
62575;DHT22;53112;45.602;11.904;2022-09-20T21:01:16;20.50;54.70
62575;DHT22;53112;45.602;11.904;2022-09-20T21:03:46;20.50;55.20
62575;DHT22;53112;45.602;11.904;2022-09-20T21:06:13;20.40;54.50
62575;DHT22;53112;45.602;11.904;2022-09-20T21:08:42;20.40;54.30
62575;DHT22;53112;45.602;11.904;2022-09-20T21:11:15;20.40;54.60
62575;DHT22;53112;45.602;11.904;2022-09-20T21:13:42;20.10;56.40
62575;DHT22;53112;45.602;11.904;2022-09-20T21:16:09;20.10;55.70
62575;DHT22;53112;45.602;11.904;2022-09-20T21:18:37;20.10;55.40
62575;DHT22;53112;45.602;11.904;2022-09-20T21:21:33;20.00;55.80
62575;DHT22;53112;45.602;11.904;2022-09-20T21:24:00;20.00;55.90
62575;DHT22;53112;45.602;11.904;2022-09-20T21:26:27;19.80;57.90
62575;DHT22;53112;45.602;11.904;2022-09-20T21:28:58;19.70;57.00
62575;DHT22;53112;45.602;11.904;2022-09-20T21:31:27;19.80;56.50
62575;DHT22;53112;45.602;11.904;2022-09-20T21:33:53;19.90;55.90
62575;DHT22;53112;45.602;11.904;2022-09-20T21:36:21;19.90;55.90